createdAt,value
2022-08-16T00:00:38.686Z,6.30
2022-08-16T00:03:14.916Z,6.10
2022-08-16T00:06:24.286Z,4.00
2022-08-16T00:09:14.279Z,7.90
2022-08-16T00:12:05.550Z,6.50
2022-08-16T00:15:52.238Z,3.30
2022-08-16T00:18:44.325Z,8.30
2022-08-16T00:26:35.001Z,6.50
2022-08-16T00:28:47.336Z,5.40
2022-08-16T00:32:01.402Z,6.40
2022-08-16T00:38:40.961Z,4.40
2022-08-16T00:41:49.195Z,4.90
2022-08-16T00:48:30.638Z,5.60
2022-08-16T00:51:41.317Z,3.90
2022-08-16T00:54:14.531Z,8.50
2022-08-16T01:00:38.561Z,9.50
2022-08-16T01:03:35.019Z,8.20
2022-08-16T01:10:34.408Z,7.00
2022-08-16T01:13:29.126Z,4.90
2022-08-16T01:16:20.322Z,7.40
2022-08-16T01:19:49.294Z,5.20
2022-08-16T01:22:47.467Z,5.40
2022-08-16T01:25:33.819Z,5.60
2022-08-16T01:28:20.251Z,6.80
2022-08-16T01:31:15.105Z,12.60
2022-08-16T01:34:07.071Z,4.30
2022-08-16T01:36:41.956Z,8.10
2022-08-16T01:39:35.275Z,3.20
2022-08-16T01:42:43.628Z,7.00
2022-08-16T01:52:03.492Z,4.70
2022-08-16T01:57:56.087Z,6.20
2022-08-16T02:00:47.309Z,6.80
2022-08-16T02:03:58.755Z,4.50
2022-08-16T02:07:03.943Z,5.40
2022-08-16T02:09:59.706Z,6.50
2022-08-16T02:13:02.700Z,7.10
2022-08-16T02:16:28.934Z,3.20
2022-08-16T02:22:49.649Z,13.10
2022-08-16T02:28:47.670Z,13.10
2022-08-16T02:32:03.913Z,6.50
2022-08-16T02:34:56.514Z,11.10
2022-08-16T02:38:08.824Z,4.10
2022-08-16T02:48:00.738Z,5.80
2022-08-16T02:51:10.202Z,3.90
2022-08-16T02:53:48.613Z,6.60
2022-08-16T02:57:14.211Z,7.60
2022-08-16T03:00:34.133Z,3.10
2022-08-16T03:10:14.331Z,6.20
2022-08-16T03:12:55.438Z,4.10
2022-08-16T03:15:49.791Z,5.00
2022-08-16T03:18:40.498Z,5.40
2022-08-16T03:21:15.485Z,9.50
2022-08-16T03:23:51.907Z,4.70
2022-08-16T03:26:24.534Z,9.10
2022-08-16T03:29:54.281Z,10.10
2022-08-16T03:33:03.144Z,9.60
2022-08-16T03:36:30.960Z,6.40
2022-08-16T03:39:14.880Z,11.00
2022-08-16T03:42:07.313Z,7.00
2022-08-16T03:47:51.818Z,8.50
2022-08-16T03:51:00.077Z,5.00
2022-08-16T03:56:30.333Z,5.00
2022-08-16T03:59:39.107Z,5.70
2022-08-16T04:05:25.607Z,6.20
2022-08-16T04:08:24.896Z,10.50
2022-08-16T04:11:20.236Z,4.80
2022-08-16T04:17:42.532Z,7.10
2022-08-16T04:20:33.875Z,5.20
2022-08-16T04:23:27.915Z,13.30
2022-08-16T04:26:36.857Z,9.40
2022-08-16T04:29:46.366Z,6.30
2022-08-16T04:32:36.894Z,6.80
2022-08-16T04:35:16.218Z,6.10
2022-08-16T04:38:11.099Z,7.70
2022-08-16T04:41:32.917Z,7.20
2022-08-16T04:44:32.534Z,5.50
2022-08-16T04:47:56.951Z,6.20
2022-08-16T04:50:47.834Z,8.10
2022-08-16T04:53:41.412Z,5.40
2022-08-16T04:56:48.838Z,3.60
2022-08-16T04:59:40.301Z,8.70
2022-08-16T05:02:42.107Z,4.40
2022-08-16T05:09:28.455Z,3.80
2022-08-16T05:12:55.376Z,8.40
2022-08-16T05:16:23.087Z,5.40
2022-08-16T05:19:03.074Z,3.50
2022-08-16T05:29:04.813Z,5.80
2022-08-16T05:35:03.179Z,8.00
2022-08-16T05:38:32.717Z,9.60
2022-08-16T05:41:09.525Z,7.90
2022-08-16T05:44:52.784Z,3.60
2022-08-16T05:48:04.368Z,5.60
2022-08-16T05:50:46.593Z,5.70
2022-08-16T05:53:44.355Z,4.60
2022-08-16T05:56:37.510Z,4.90
2022-08-16T05:59:47.165Z,5.00
2022-08-16T06:06:28.985Z,6.70
2022-08-16T06:09:59.839Z,4.40
2022-08-16T06:13:08.907Z,8.30
2022-08-16T06:16:35.070Z,2.90
2022-08-16T06:19:07.377Z,6.00
2022-08-16T06:22:00.679Z,5.30
2022-08-16T06:24:53.420Z,7.20
2022-08-16T06:27:57.117Z,3.80
2022-08-16T06:30:48.833Z,4.10
2022-08-16T06:34:00.934Z,4.50
2022-08-16T06:37:10.824Z,5.40
2022-08-16T06:43:30.363Z,8.50
2022-08-16T06:50:48.961Z,5.10
2022-08-16T06:57:22.067Z,4.20
2022-08-16T07:00:24.299Z,4.70
2022-08-16T07:06:52.433Z,11.40
2022-08-16T07:09:33.320Z,8.60
2022-08-16T07:12:08.211Z,4.90
2022-08-16T07:17:47.067Z,4.50
2022-08-16T07:20:59.961Z,6.90
2022-08-16T07:27:44.475Z,5.30
2022-08-16T07:30:54.120Z,7.60
2022-08-16T07:44:15.387Z,7.60
2022-08-16T07:50:07.371Z,7.50
2022-08-16T07:52:46.224Z,3.80
2022-08-16T07:56:16.055Z,9.90
2022-08-16T07:58:55.391Z,3.10
2022-08-16T08:02:05.707Z,7.10
2022-08-16T08:04:46.024Z,5.80
2022-08-16T08:07:54.325Z,2.00
2022-08-16T08:14:49.336Z,5.40
2022-08-16T08:24:00.317Z,3.00
2022-08-16T08:26:51.969Z,2.30
2022-08-16T08:29:43.197Z,3.20
2022-08-16T08:32:59.376Z,3.30
2022-08-16T08:36:02.341Z,4.00
2022-08-16T08:39:28.085Z,3.50
2022-08-16T08:42:18.137Z,7.20
2022-08-16T08:45:43.138Z,4.20
2022-08-16T08:48:33.680Z,4.80
2022-08-16T08:51:47.218Z,5.40
2022-08-16T08:54:56.858Z,5.10
2022-08-16T08:57:47.927Z,5.40
2022-08-16T09:00:56.840Z,3.10
2022-08-16T09:06:24.043Z,8.80
2022-08-16T09:10:06.164Z,4.80
2022-08-16T09:12:57.132Z,4.00
2022-08-16T09:19:03.825Z,3.70
2022-08-16T09:25:37.754Z,2.20
2022-08-16T09:29:13.896Z,6.80
2022-08-16T09:38:31.297Z,4.20
2022-08-16T09:41:22.682Z,2.80
2022-08-16T09:45:12.082Z,5.70
2022-08-16T09:53:42.003Z,3.80
2022-08-16T09:56:26.431Z,6.80
2022-08-16T09:59:04.790Z,6.00
2022-08-16T10:02:44.111Z,4.90
2022-08-16T10:06:11.070Z,6.80
2022-08-16T10:12:23.693Z,5.20
2022-08-16T10:15:35.403Z,8.20
2022-08-16T10:19:01.732Z,7.90
2022-08-16T10:21:56.400Z,4.80
2022-08-16T10:25:04.765Z,5.60
2022-08-16T10:28:41.718Z,4.50
2022-08-16T10:31:43.730Z,3.90
2022-08-16T10:34:32.223Z,6.60
2022-08-16T10:37:39.938Z,6.60
2022-08-16T10:40:28.967Z,5.50
2022-08-16T10:43:19.915Z,4.40
2022-08-16T10:46:33.761Z,6.50
2022-08-16T10:49:57.937Z,7.30
2022-08-16T10:56:55.438Z,5.20
2022-08-16T11:06:00.103Z,6.00
2022-08-16T11:19:02.813Z,5.40
2022-08-16T11:27:52.317Z,4.40
2022-08-16T11:33:53.527Z,13.00
2022-08-16T11:39:55.253Z,3.80
2022-08-16T11:43:07.653Z,6.10
2022-08-16T11:45:42.703Z,7.30
2022-08-16T11:48:28.262Z,2.80
2022-08-16T11:51:35.301Z,6.00
2022-08-16T11:57:57.369Z,7.20
2022-08-16T12:00:53.104Z,12.00
2022-08-16T12:06:53.549Z,4.80
2022-08-16T12:09:29.810Z,7.20
2022-08-16T12:12:03.154Z,8.30
2022-08-16T12:14:59.996Z,5.90
2022-08-16T12:17:52.875Z,7.40
2022-08-16T12:23:35.282Z,9.20
2022-08-16T12:26:26.819Z,11.60
2022-08-16T12:29:34.686Z,5.00
2022-08-16T12:33:04.184Z,3.60
2022-08-16T12:45:21.939Z,7.90
2022-08-16T12:51:30.575Z,5.90
2022-08-16T12:54:22.943Z,6.90
2022-08-16T13:03:32.066Z,6.40
2022-08-16T13:06:52.476Z,8.90
2022-08-16T13:09:28.920Z,8.10
2022-08-16T13:12:39.299Z,9.00
2022-08-16T13:15:55.850Z,7.40
2022-08-16T13:18:52.986Z,9.10
2022-08-16T13:21:44.152Z,7.40
2022-08-16T13:24:58.429Z,9.40
2022-08-16T13:31:14.670Z,17.30
2022-08-16T13:34:23.864Z,15.10
2022-08-16T13:37:13.662Z,10.00
2022-08-16T13:40:21.464Z,11.50
2022-08-16T13:48:56.405Z,14.30
2022-08-16T13:54:55.822Z,9.90
2022-08-16T13:58:37.310Z,11.70
2022-08-16T14:00:55.715Z,11.40
2022-08-16T14:10:11.509Z,14.40
2022-08-16T14:13:07.346Z,12.10
2022-08-16T14:19:36.842Z,10.70
2022-08-16T14:22:40.050Z,7.80
2022-08-16T14:25:36.536Z,6.70
2022-08-16T14:28:26.929Z,5.20
2022-08-16T14:31:38.943Z,10.70
2022-08-16T14:37:21.304Z,10.50
2022-08-16T14:40:13.262Z,7.80
2022-08-16T14:48:15.890Z,6.40
2022-08-16T14:51:23.463Z,7.60
2022-08-16T14:54:36.508Z,7.90
2022-08-16T14:57:09.052Z,11.20
2022-08-16T15:00:04.748Z,10.20
2022-08-16T15:02:59.669Z,12.10
2022-08-16T15:05:49.173Z,6.60
2022-08-16T15:12:46.157Z,33.40
2022-08-16T15:15:37.822Z,19.70
2022-08-16T15:18:46.673Z,10.00
2022-08-16T15:22:29.991Z,9.70
2022-08-16T15:25:05.215Z,10.80
2022-08-16T15:31:22.250Z,9.00
2022-08-16T15:34:13.426Z,11.30
2022-08-16T15:37:53.078Z,8.50
2022-08-16T15:47:18.551Z,11.50
2022-08-16T15:51:03.329Z,8.90
2022-08-16T15:54:16.598Z,8.20
2022-08-16T15:57:22.269Z,5.40
2022-08-16T16:00:16.313Z,8.40
2022-08-16T16:07:30.303Z,18.40
2022-08-16T16:14:03.111Z,10.60
2022-08-16T16:17:00.697Z,11.70
2022-08-16T16:19:53.849Z,8.60
2022-08-16T16:26:11.690Z,3.90
2022-08-16T16:29:07.887Z,16.80
2022-08-16T16:35:07.467Z,12.40
2022-08-16T16:37:57.460Z,13.60
2022-08-16T16:41:23.071Z,6.10
2022-08-16T16:43:58.276Z,7.60
2022-08-16T16:46:42.864Z,9.80
2022-08-16T16:49:16.667Z,9.70
2022-08-16T16:52:07.676Z,8.30
2022-08-16T16:54:57.268Z,5.90
2022-08-16T16:57:47.246Z,10.20
2022-08-16T17:00:38.110Z,10.90
2022-08-16T17:03:53.654Z,7.20
2022-08-16T17:06:26.307Z,8.90
2022-08-16T17:09:54.101Z,9.50
2022-08-16T17:12:47.052Z,13.40
2022-08-16T17:15:57.838Z,8.60
2022-08-16T17:19:15.057Z,3.80
2022-08-16T17:21:58.783Z,5.70
2022-08-16T17:28:58.604Z,8.40
2022-08-16T17:34:35.871Z,15.60
2022-08-16T17:37:55.290Z,10.60
2022-08-16T17:47:19.191Z,8.30
2022-08-16T17:50:45.513Z,7.10
2022-08-16T17:53:55.152Z,8.50
2022-08-16T17:56:46.513Z,10.80
2022-08-16T17:59:53.022Z,9.60
2022-08-16T18:03:01.238Z,9.80
2022-08-16T18:05:51.833Z,9.60
2022-08-16T18:08:25.958Z,9.50
2022-08-16T18:11:03.913Z,5.80
2022-08-16T18:14:02.007Z,10.40
2022-08-16T18:31:07.827Z,10.30
2022-08-16T18:34:15.032Z,6.60
2022-08-16T18:36:47.351Z,5.60
2022-08-16T18:46:06.027Z,9.50
2022-08-16T18:48:38.131Z,5.80
2022-08-16T18:51:28.193Z,6.00
2022-08-16T18:54:19.205Z,7.50
2022-08-16T18:57:08.809Z,8.30
2022-08-16T19:00:17.308Z,5.70
2022-08-16T19:02:59.000Z,6.00
2022-08-16T19:05:34.164Z,10.20
2022-08-16T19:11:49.065Z,10.80
2022-08-16T19:14:39.162Z,13.40
2022-08-16T19:17:11.795Z,11.40
2022-08-16T19:23:50.187Z,8.90
2022-08-16T19:30:25.758Z,11.70
2022-08-16T19:33:15.039Z,11.80
2022-08-16T19:36:31.039Z,13.50
2022-08-16T19:40:00.446Z,15.30
2022-08-16T19:42:50.623Z,14.90
2022-08-16T19:54:49.083Z,17.70
2022-08-16T19:57:40.769Z,11.60
2022-08-16T20:00:52.349Z,9.80
2022-08-16T20:03:46.535Z,20.00
2022-08-16T20:06:35.770Z,15.00
2022-08-16T20:09:47.192Z,12.20
2022-08-16T20:12:41.368Z,11.00
2022-08-16T20:15:17.259Z,15.80
2022-08-16T20:18:42.589Z,14.90
2022-08-16T20:21:50.091Z,27.20
2022-08-16T20:24:34.126Z,15.50
2022-08-16T20:27:25.793Z,19.10
2022-08-16T20:30:16.285Z,14.90
2022-08-16T20:33:30.252Z,19.00
2022-08-16T20:36:02.613Z,17.10
2022-08-16T20:39:30.034Z,16.70
2022-08-16T20:42:37.522Z,12.50
2022-08-16T20:46:02.069Z,14.60
2022-08-16T20:48:53.787Z,23.90
2022-08-16T20:51:26.051Z,21.80
2022-08-16T20:57:59.471Z,13.70
2022-08-16T21:01:10.832Z,13.10
2022-08-16T21:06:33.130Z,13.20
2022-08-16T21:09:22.749Z,18.50
2022-08-16T21:15:40.172Z,14.80
2022-08-16T21:19:05.451Z,14.30
2022-08-16T21:21:37.755Z,13.20
2022-08-16T21:25:02.405Z,13.00
2022-08-16T21:31:34.242Z,19.90
2022-08-16T21:34:43.160Z,12.50
2022-08-16T21:37:15.886Z,12.90
2022-08-16T21:46:05.561Z,9.10
2022-08-16T21:48:55.101Z,14.60
2022-08-16T21:52:04.477Z,13.10
2022-08-16T21:54:56.307Z,11.00
2022-08-16T21:57:46.567Z,14.60
2022-08-16T22:00:55.791Z,7.30
2022-08-16T22:04:36.805Z,11.60
2022-08-16T22:20:58.570Z,14.50
2022-08-16T22:23:56.995Z,11.70
2022-08-16T22:26:33.889Z,15.80
2022-08-16T22:29:25.101Z,12.40
2022-08-16T22:32:14.685Z,7.60
2022-08-16T22:38:50.162Z,15.40
2022-08-16T22:41:07.082Z,17.40
2022-08-16T22:43:39.655Z,14.70
2022-08-16T22:46:47.247Z,11.80
2022-08-16T22:49:19.778Z,14.50
2022-08-16T22:51:52.477Z,15.30
2022-08-16T22:54:48.474Z,13.70
2022-08-16T22:57:38.984Z,22.30
2022-08-16T23:00:31.094Z,17.90
2022-08-16T23:03:22.720Z,15.90
2022-08-16T23:06:00.540Z,16.30
2022-08-16T23:09:09.287Z,11.30
2022-08-16T23:15:06.809Z,21.30
2022-08-16T23:18:16.376Z,13.40
2022-08-16T23:21:24.141Z,18.70
2022-08-16T23:24:17.655Z,17.60
2022-08-16T23:29:57.076Z,16.20
2022-08-16T23:32:29.348Z,16.40
2022-08-16T23:38:47.649Z,15.10
2022-08-16T23:41:38.236Z,20.40
2022-08-16T23:44:44.354Z,17.80
2022-08-16T23:47:54.627Z,18.70
2022-08-16T23:50:46.401Z,20.70
2022-08-16T23:53:20.966Z,20.90
